Time,TemperatureF,DewpointF,PressureIn,WindDirection,WindDirectionDegrees,WindSpeedMPH,WindSpeedGustMPH,Humidity,HourlyPrecipIn,Conditions,Clouds,dailyrainin,SoftwareType,DateUTC
2013-04-30 00:00:00,55.2,54.4,30.10,ESE,118,3.0,6.0,97,0.02,,---,0.44,VWS V14.01,2013-04-30 04:00:00,
2013-04-30 00:01:00,55.2,54.4,30.10,ESE,103,0.0,0.0,97,0.02,,---,0.00,VWS V14.01,2013-04-30 04:01:00,
2013-04-30 00:06:00,55.2,54.4,30.10,East,95,1.0,3.0,97,0.02,,---,0.00,VWS V14.01,2013-04-30 04:06:00,
2013-04-30 00:11:00,55.2,54.4,30.10,ESE,113,0.0,4.0,97,0.02,,---,0.00,VWS V14.01,2013-04-30 04:11:00,
2013-04-30 00:16:00,55.3,54.5,30.10,ESE,113,0.0,4.0,97,0.02,,---,0.00,VWS V14.01,2013-04-30 04:16:00,
2013-04-30 00:21:00,55.3,54.5,30.10,ESE,113,0.0,4.0,97,0.02,,---,0.00,VWS V14.01,2013-04-30 04:21:00,
2013-04-30 00:26:00,55.3,54.5,30.10,ESE,113,0.0,4.0,97,0.02,,---,0.00,VWS V14.01,2013-04-30 04:26:00,
2013-04-30 00:30:00,55.3,54.5,30.10,ESE,113,0.0,4.0,97,0.03,,---,0.01,VWS V14.01,2013-04-30 04:30:00,
2013-04-30 00:31:00,55.3,54.5,30.10,ESE,113,0.0,0.0,97,0.02,,---,0.01,VWS V14.01,2013-04-30 04:31:00,
2013-04-30 00:36:00,55.4,54.6,30.10,ESE,115,1.0,2.0,97,0.02,,---,0.01,VWS V14.01,2013-04-30 04:36:00,
2013-04-30 00:41:00,55.4,54.6,30.10,ESE,113,0.0,2.0,97,0.02,,---,0.01,VWS V14.01,2013-04-30 04:41:00,
2013-04-30 00:46:00,55.4,54.8,30.10,ESE,122,2.0,2.0,98,0.02,,---,0.01,VWS V14.01,2013-04-30 04:46:00,
2013-04-30 00:51:00,55.4,54.8,30.10,SE,137,0.0,3.0,98,0.02,,---,0.01,VWS V14.01,2013-04-30 04:51:00,
2013-04-30 00:56:00,55.4,54.8,30.09,ESE,115,0.0,3.0,98,0.02,,---,0.01,VWS V14.01,2013-04-30 04:56:00,
2013-04-30 01:00:00,55.2,54.4,30.10,ESE,103,0.0,6.0,97,0.02,,---,0.00,VWS V14.01,2013-04-30 05:00:00,
2013-04-30 01:01:00,55.5,55.0,30.09,ESE,115,0.0,0.0,98,0.01,,---,0.01,VWS V14.01,2013-04-30 05:01:00,
2013-04-30 01:06:00,55.4,54.8,30.09,NNW,331,0.0,2.0,98,0.01,,---,0.01,VWS V14.01,2013-04-30 05:06:00,
2013-04-30 01:11:00,55.5,55.0,30.09,NNW,331,0.0,2.0,98,0.01,,---,0.01,VWS V14.01,2013-04-30 05:11:00,
2013-04-30 01:16:00,55.5,55.0,30.09,ESE,104,0.0,2.0,98,0.01,,---,0.01,VWS V14.01,2013-04-30 05:16:00,
2013-04-30 01:21:00,55.5,55.0,30.09,ESE,104,1.0,2.0,98,0.01,,---,0.01,VWS V14.01,2013-04-30 05:21:00,
2013-04-30 01:26:00,55.5,55.0,30.09,NE,52,1.0,3.0,98,0.02,,---,0.02,VWS V14.01,2013-04-30 05:26:00,
2013-04-30 01:30:00,55.4,54.8,30.09,SE,129,0.0,3.0,98,0.02,,---,0.02,VWS V14.01,2013-04-30 05:30:00,
2013-04-30 01:31:00,55.5,55.0,30.09,SE,129,0.0,1.0,98,0.01,,---,0.02,VWS V14.01,2013-04-30 05:31:00,
2013-04-30 01:36:00,55.4,54.8,30.09,SE,128,0.0,3.0,98,0.01,,---,0.02,VWS V14.01,2013-04-30 05:36:00,
2013-04-30 01:41:00,55.4,54.8,30.09,SE,128,0.0,3.0,98,0.01,,---,0.02,VWS V14.01,2013-04-30 05:41:00,
2013-04-30 01:46:00,55.4,54.8,30.09,NNW,328,0.0,3.0,98,0.01,,---,0.02,VWS V14.01,2013-04-30 05:46:00,
2013-04-30 01:51:00,55.3,54.8,30.09,NNW,330,0.0,3.0,98,0.01,,---,0.02,VWS V14.01,2013-04-30 05:51:00,
2013-04-30 01:56:00,55.3,54.8,30.09,ESE,117,0.0,5.0,98,0.01,,---,0.02,VWS V14.01,2013-04-30 05:56:00,
2013-04-30 02:00:00,55.4,54.8,30.09,ESE,118,0.0,5.0,98,0.01,,---,0.02,VWS V14.01,2013-04-30 06:00:00,
2013-04-30 02:01:00,55.3,54.8,30.09,ESE,118,0.0,0.0,98,0.01,,---,0.02,VWS V14.01,2013-04-30 06:01:00,
2013-04-30 02:06:00,55.4,54.8,30.09,ESE,118,0.0,1.0,98,0.01,,---,0.02,VWS V14.01,2013-04-30 06:06:00,
2013-04-30 02:11:00,55.3,54.8,30.09,ESE,118,0.0,1.0,98,0.01,,---,0.02,VWS V14.01,2013-04-30 06:11:00,
2013-04-30 02:16:00,55.3,54.8,30.09,ESE,118,0.0,1.0,98,0.01,,---,0.02,VWS V14.01,2013-04-30 06:16:00,
2013-04-30 02:21:00,55.4,54.8,30.09,ESE,118,0.0,1.0,98,0.01,,---,0.02,VWS V14.01,2013-04-30 06:21:00,
2013-04-30 02:26:00,55.4,54.8,30.09,ESE,118,0.0,1.0,98,0.01,,---,0.02,VWS V14.01,2013-04-30 06:26:00,
2013-04-30 02:30:00,55.3,54.8,30.09,ESE,118,0.0,2.0,98,0.01,,---,0.02,VWS V14.01,2013-04-30 06:30:00,
2013-04-30 02:31:00,55.3,54.8,30.09,ESE,118,0.0,0.0,98,0.00,,---,0.02,VWS V14.01,2013-04-30 06:31:00,
2013-04-30 02:36:00,55.3,54.8,30.09,NNW,328,0.0,3.0,98,0.00,,---,0.02,VWS V14.01,2013-04-30 06:36:00,
2013-04-30 02:41:00,55.3,54.8,30.09,ENE,78,0.0,3.0,98,0.00,,---,0.02,VWS V14.01,2013-04-30 06:41:00,
2013-04-30 02:46:00,55.3,54.8,30.09,ENE,78,0.0,3.0,98,0.00,,---,0.02,VWS V14.01,2013-04-30 06:46:00,
2013-04-30 02:51:00,55.4,54.8,30.09,ENE,78,0.0,3.0,98,0.01,,---,0.03,VWS V14.01,2013-04-30 06:51:00,
2013-04-30 02:56:00,55.4,54.8,30.09,ESE,120,0.0,3.0,98,0.01,,---,0.03,VWS V14.01,2013-04-30 06:56:00,
2013-04-30 03:00:00,55.4,54.8,30.09,ESE,118,0.0,5.0,98,0.01,,---,0.02,VWS V14.01,2013-04-30 07:00:00,
2013-04-30 03:01:00,55.4,54.8,30.08,ESE,120,0.0,0.0,98,0.01,,---,0.03,VWS V14.01,2013-04-30 07:01:00,
2013-04-30 03:06:00,55.4,54.8,30.09,ESE,117,0.0,2.0,98,0.01,,---,0.03,VWS V14.01,2013-04-30 07:06:00,
2013-04-30 03:11:00,55.4,54.8,30.08,NNE,28,0.0,2.0,98,0.01,,---,0.03,VWS V14.01,2013-04-30 07:11:00,
2013-04-30 03:16:00,55.4,54.8,30.08,ESE,107,0.0,3.0,98,0.01,,---,0.03,VWS V14.01,2013-04-30 07:16:00,
2013-04-30 03:21:00,55.4,54.8,30.09,ESE,117,0.0,5.0,98,0.01,,---,0.03,VWS V14.01,2013-04-30 07:21:00,
2013-04-30 03:26:00,55.4,54.8,30.09,ESE,116,0.0,5.0,98,0.01,,---,0.03,VWS V14.01,2013-04-30 07:26:00,
2013-04-30 03:30:00,55.4,54.8,30.09,ESE,110,0.0,5.0,98,0.01,,---,0.03,VWS V14.01,2013-04-30 07:30:00,
2013-04-30 03:31:00,55.4,54.8,30.09,ESE,110,0.0,0.0,98,0.01,,---,0.03,VWS V14.01,2013-04-30 07:31:00,
2013-04-30 03:36:00,55.4,54.8,30.09,ESE,103,0.0,2.0,98,0.01,,---,0.03,VWS V14.01,2013-04-30 07:36:00,
2013-04-30 03:41:00,55.4,54.8,30.09,NNW,342,2.0,4.0,98,0.01,,---,0.03,VWS V14.01,2013-04-30 07:41:00,
2013-04-30 03:46:00,55.4,54.8,30.09,NE,44,1.0,4.0,98,0.01,,---,0.03,VWS V14.01,2013-04-30 07:46:00,
2013-04-30 03:51:00,55.4,54.8,30.09,East,82,1.0,4.0,98,0.01,,---,0.03,VWS V14.01,2013-04-30 07:51:00,
2013-04-30 03:56:00,55.3,54.8,30.09,East,93,0.0,4.0,98,0.01,,---,0.03,VWS V14.01,2013-04-30 07:56:00,
2013-04-30 04:00:00,55.3,54.8,30.09,East,92,0.0,4.0,98,0.01,,---,0.03,VWS V14.01,2013-04-30 08:00:00,
2013-04-30 04:01:00,55.3,54.8,30.09,East,92,0.0,0.0,98,0.00,,---,0.03,VWS V14.01,2013-04-30 08:01:00,
2013-04-30 04:06:00,55.3,54.8,30.09,SE,127,0.0,3.0,98,0.00,,---,0.03,VWS V14.01,2013-04-30 08:06:00,
2013-04-30 04:11:00,55.3,54.8,30.09,ENE,66,1.0,3.0,98,0.01,,---,0.04,VWS V14.01,2013-04-30 08:11:00,
2013-04-30 04:16:00,55.3,54.8,30.09,NNE,32,0.0,3.0,98,0.01,,---,0.04,VWS V14.01,2013-04-30 08:16:00,
2013-04-30 04:21:00,55.3,54.8,30.10,ESE,121,3.0,3.0,98,0.01,,---,0.04,VWS V14.01,2013-04-30 08:21:00,
2013-04-30 04:26:00,55.3,54.8,30.10,ESE,122,0.0,5.0,98,0.02,,---,0.05,VWS V14.01,2013-04-30 08:26:00,
2013-04-30 04:30:00,55.3,54.8,30.10,NNE,30,0.0,5.0,98,0.02,,---,0.05,VWS V14.01,2013-04-30 08:30:00,
2013-04-30 04:31:00,55.3,54.8,30.10,NNE,30,0.0,0.0,98,0.02,,---,0.05,VWS V14.01,2013-04-30 08:31:00,
2013-04-30 04:36:00,55.3,54.8,30.10,East,97,0.0,4.0,98,0.02,,---,0.05,VWS V14.01,2013-04-30 08:36:00,
2013-04-30 04:41:00,55.3,54.8,30.10,East,88,0.0,4.0,98,0.03,,---,0.06,VWS V14.01,2013-04-30 08:41:00,
2013-04-30 04:46:00,55.3,54.8,30.10,East,88,0.0,4.0,98,0.04,,---,0.07,VWS V14.01,2013-04-30 08:46:00,
2013-04-30 04:51:00,55.3,54.8,30.10,ESE,117,0.0,4.0,98,0.04,,---,0.07,VWS V14.01,2013-04-30 08:51:00,
2013-04-30 04:56:00,55.4,54.8,30.10,East,85,0.0,4.0,98,0.05,,---,0.08,VWS V14.01,2013-04-30 08:56:00,
2013-04-30 05:00:00,55.4,54.8,30.10,East,85,0.0,4.0,98,0.06,,---,0.09,VWS V14.01,2013-04-30 09:00:00,
2013-04-30 05:01:00,55.4,54.8,30.10,East,85,0.0,0.0,98,0.06,,---,0.09,VWS V14.01,2013-04-30 09:01:00,
2013-04-30 05:06:00,55.4,54.8,30.10,East,85,0.0,0.0,98,0.06,,---,0.09,VWS V14.01,2013-04-30 09:06:00,
2013-04-30 05:11:00,55.5,55.0,30.10,East,95,0.0,2.0,98,0.06,,---,0.09,VWS V14.01,2013-04-30 09:11:00,
2013-04-30 05:16:00,55.5,55.0,30.10,ENE,70,0.0,2.0,98,0.06,,---,0.09,VWS V14.01,2013-04-30 09:16:00,
2013-04-30 05:21:00,55.5,55.0,30.10,ENE,70,0.0,2.0,98,0.06,,---,0.09,VWS V14.01,2013-04-30 09:21:00,
2013-04-30 05:26:00,55.6,55.0,30.11,NNE,14,1.0,2.0,98,0.06,,---,0.09,VWS V14.01,2013-04-30 09:26:00,
2013-04-30 05:30:00,55.6,55.0,30.11,NNE,14,0.0,2.0,98,0.07,,---,0.10,VWS V14.01,2013-04-30 09:30:00,
2013-04-30 05:31:00,55.6,55.0,30.11,NNE,14,0.0,0.0,98,0.05,,---,0.10,VWS V14.01,2013-04-30 09:31:00,
2013-04-30 05:36:00,55.7,55.2,30.11,NNE,23,0.0,2.0,98,0.05,,---,0.10,VWS V14.01,2013-04-30 09:36:00,
2013-04-30 05:41:00,55.7,55.2,30.11,NNE,23,1.0,2.0,98,0.05,,---,0.10,VWS V14.01,2013-04-30 09:41:00,
2013-04-30 05:46:00,55.6,55.0,30.11,ESE,123,0.0,4.0,98,0.05,,---,0.10,VWS V14.01,2013-04-30 09:46:00,
2013-04-30 05:51:00,55.6,55.0,30.11,SE,131,0.0,4.0,98,0.05,,---,0.10,VWS V14.01,2013-04-30 09:51:00,
2013-04-30 05:56:00,55.6,55.0,30.12,NNE,27,0.0,4.0,98,0.05,,---,0.10,VWS V14.01,2013-04-30 09:56:00,
2013-04-30 06:00:00,55.4,54.8,30.10,East,85,0.0,4.0,98,0.06,,---,0.09,VWS V14.01,2013-04-30 10:00:00,
2013-04-30 06:01:00,55.6,55.0,30.12,SSE,155,0.0,1.0,98,0.01,,---,0.10,VWS V14.01,2013-04-30 10:01:00,
2013-04-30 06:06:00,55.7,55.2,30.12,SSE,155,1.0,2.0,98,0.01,,---,0.10,VWS V14.01,2013-04-30 10:06:00,
2013-04-30 06:11:00,55.6,55.0,30.12,SSE,155,1.0,2.0,98,0.02,,---,0.11,VWS V14.01,2013-04-30 10:11:00,
2013-04-30 06:16:00,55.7,55.2,30.12,SSE,155,0.0,2.0,98,0.02,,---,0.11,VWS V14.01,2013-04-30 10:16:00,
2013-04-30 06:21:00,55.6,55.0,30.13,SSW,206,1.0,2.0,98,0.02,,---,0.11,VWS V14.01,2013-04-30 10:21:00,
2013-04-30 06:26:00,55.7,55.2,30.13,East,84,2.0,4.0,98,0.02,,---,0.11,VWS V14.01,2013-04-30 10:26:00,
2013-04-30 06:30:00,55.7,55.2,30.14,NE,51,0.0,4.0,98,0.02,,---,0.11,VWS V14.01,2013-04-30 10:30:00,
2013-04-30 06:31:00,55.6,55.0,30.14,NE,51,0.0,0.0,98,0.01,,---,0.11,VWS V14.01,2013-04-30 10:31:00,
2013-04-30 06:36:00,55.7,55.2,30.14,ESE,112,0.0,3.0,98,0.01,,---,0.11,VWS V14.01,2013-04-30 10:36:00,
2013-04-30 06:41:00,55.7,55.2,30.14,ESE,112,0.0,3.0,98,0.01,,---,0.11,VWS V14.01,2013-04-30 10:41:00,
2013-04-30 06:46:00,55.7,55.2,30.14,ESE,112,0.0,3.0,98,0.01,,---,0.11,VWS V14.01,2013-04-30 10:46:00,
2013-04-30 06:51:00,55.7,55.2,30.15,NE,52,1.0,3.0,98,0.01,,---,0.11,VWS V14.01,2013-04-30 10:51:00,
2013-04-30 06:56:00,55.7,55.2,30.15,ESE,104,0.0,3.0,98,0.01,,---,0.11,VWS V14.01,2013-04-30 10:56:00,
2013-04-30 07:00:00,55.6,55.0,30.12,SSE,155,0.0,4.0,98,0.05,,---,0.10,VWS V14.01,2013-04-30 11:00:00,
2013-04-30 07:01:00,55.7,55.2,30.15,NNE,30,0.0,0.0,98,0.02,,---,0.12,VWS V14.01,2013-04-30 11:01:00,
2013-04-30 07:06:00,55.7,55.2,30.15,NNE,29,0.0,2.0,98,0.02,,---,0.12,VWS V14.01,2013-04-30 11:06:00,
2013-04-30 07:11:00,55.7,55.2,30.15,ENE,77,0.0,2.0,98,0.02,,---,0.12,VWS V14.01,2013-04-30 11:11:00,
2013-04-30 07:16:00,55.8,55.2,30.15,ENE,77,0.0,2.0,98,0.02,,---,0.12,VWS V14.01,2013-04-30 11:16:00,
2013-04-30 07:21:00,55.8,55.2,30.16,East,88,1.0,2.0,98,0.02,,---,0.12,VWS V14.01,2013-04-30 11:21:00,
2013-04-30 07:26:00,55.8,55.2,30.16,ESE,120,0.0,3.0,98,0.02,,---,0.12,VWS V14.01,2013-04-30 11:26:00,
2013-04-30 07:30:00,55.8,55.2,30.16,ESE,117,1.0,3.0,98,0.02,,---,0.12,VWS V14.01,2013-04-30 11:30:00,
2013-04-30 07:31:00,55.9,55.3,30.16,ESE,117,1.0,2.0,98,0.01,,---,0.12,VWS V14.01,2013-04-30 11:31:00,
2013-04-30 07:36:00,55.8,55.2,30.16,SE,131,5.0,5.0,98,0.01,,---,0.12,VWS V14.01,2013-04-30 11:36:00,
2013-04-30 07:41:00,55.8,55.2,30.16,East,85,0.0,5.0,98,0.01,,---,0.12,VWS V14.01,2013-04-30 11:41:00,
2013-04-30 07:46:00,55.9,55.3,30.16,ENE,72,0.0,5.0,98,0.01,,---,0.12,VWS V14.01,2013-04-30 11:46:00,
2013-04-30 07:51:00,55.8,55.2,30.16,SW,229,0.0,5.0,98,0.02,,---,0.13,VWS V14.01,2013-04-30 11:51:00,
2013-04-30 07:56:00,55.9,55.3,30.16,SE,125,0.0,5.0,98,0.02,,---,0.13,VWS V14.01,2013-04-30 11:56:00,
2013-04-30 08:00:00,55.8,55.2,30.16,SE,131,3.0,5.0,98,0.02,,---,0.13,VWS V14.01,2013-04-30 12:00:00,
2013-04-30 08:01:00,55.8,55.2,30.16,East,80,1.0,3.0,98,0.01,,---,0.13,VWS V14.01,2013-04-30 12:01:00,
2013-04-30 08:06:00,55.8,55.2,30.17,ESE,110,0.0,3.0,98,0.01,,---,0.13,VWS V14.01,2013-04-30 12:06:00,
2013-04-30 08:11:00,55.8,55.2,30.17,SE,139,1.0,3.0,98,0.01,,---,0.13,VWS V14.01,2013-04-30 12:11:00,
2013-04-30 08:16:00,55.7,55.2,30.17,ESE,102,1.0,5.0,98,0.01,,---,0.13,VWS V14.01,2013-04-30 12:16:00,
2013-04-30 08:21:00,55.7,55.2,30.17,SE,127,1.0,5.0,98,0.01,,---,0.13,VWS V14.01,2013-04-30 12:21:00,
2013-04-30 08:26:00,55.7,55.2,30.17,WNW,283,0.0,5.0,98,0.01,,---,0.13,VWS V14.01,2013-04-30 12:26:00,
2013-04-30 08:30:00,55.7,55.2,30.17,NE,52,2.0,5.0,98,0.01,,---,0.13,VWS V14.01,2013-04-30 12:30:00,
2013-04-30 08:31:00,55.7,55.2,30.17,NE,52,1.0,2.0,98,0.01,,---,0.13,VWS V14.01,2013-04-30 12:31:00,
2013-04-30 08:36:00,55.6,55.0,30.18,East,79,2.0,5.0,98,0.02,,---,0.14,VWS V14.01,2013-04-30 12:36:00,
2013-04-30 08:41:00,55.5,55.0,30.18,NE,53,0.0,6.0,98,0.02,,---,0.14,VWS V14.01,2013-04-30 12:41:00,
2013-04-30 08:46:00,55.5,55.0,30.18,ESE,121,3.0,6.0,98,0.02,,---,0.14,VWS V14.01,2013-04-30 12:46:00,
2013-04-30 08:51:00,55.5,55.0,30.18,East,82,0.0,7.0,98,0.02,,---,0.14,VWS V14.01,2013-04-30 12:51:00,
2013-04-30 08:56:00,55.5,55.0,30.18,NNE,12,0.0,7.0,98,0.02,,---,0.14,VWS V14.01,2013-04-30 12:56:00,
2013-04-30 09:00:00,55.5,55.0,30.18,East,79,0.0,7.0,98,0.02,,---,0.14,VWS V14.01,2013-04-30 13:00:00,
2013-04-30 09:01:00,55.5,55.0,30.18,East,79,1.0,1.0,98,0.01,,---,0.14,VWS V14.01,2013-04-30 13:01:00,
2013-04-30 09:06:00,55.4,54.8,30.19,ENE,75,0.0,8.0,98,0.01,,---,0.14,VWS V14.01,2013-04-30 13:06:00,
2013-04-30 09:11:00,55.5,55.0,30.19,SE,130,6.0,8.0,98,0.01,,---,0.14,VWS V14.01,2013-04-30 13:11:00,
2013-04-30 09:16:00,55.3,54.8,30.19,ENE,57,1.0,8.0,98,0.02,,---,0.15,VWS V14.01,2013-04-30 13:16:00,
2013-04-30 09:21:00,55.3,54.8,30.19,South,169,0.0,8.0,98,0.02,,---,0.15,VWS V14.01,2013-04-30 13:21:00,
2013-04-30 09:26:00,55.3,54.8,30.19,ESE,121,0.0,8.0,98,0.02,,---,0.15,VWS V14.01,2013-04-30 13:26:00,
2013-04-30 09:30:00,55.3,54.8,30.19,NE,37,2.0,8.0,98,0.02,,---,0.15,VWS V14.01,2013-04-30 13:30:00,
2013-04-30 09:31:00,55.3,54.8,30.19,NNW,345,3.0,3.0,98,0.02,,---,0.15,VWS V14.01,2013-04-30 13:31:00,
2013-04-30 09:36:00,55.2,54.7,30.19,ENE,68,1.0,3.0,98,0.02,,---,0.15,VWS V14.01,2013-04-30 13:36:00,
2013-04-30 09:41:00,55.2,54.7,30.19,East,88,2.0,5.0,98,0.02,,---,0.15,VWS V14.01,2013-04-30 13:41:00,
2013-04-30 09:46:00,55.2,54.7,30.19,ENE,70,0.0,5.0,98,0.02,,---,0.15,VWS V14.01,2013-04-30 13:46:00,
2013-04-30 09:51:00,55.3,54.8,30.20,ENE,70,0.0,5.0,98,0.03,,---,0.16,VWS V14.01,2013-04-30 13:51:00,
2013-04-30 09:56:00,55.3,54.8,30.20,ENE,77,1.0,5.0,98,0.03,,---,0.16,VWS V14.01,2013-04-30 13:56:00,
2013-04-30 10:00:00,55.3,54.8,30.20,ENE,72,1.0,5.0,98,0.03,,---,0.16,VWS V14.01,2013-04-30 14:00:00,
2013-04-30 10:01:00,55.3,54.8,30.20,ENE,72,1.0,1.0,98,0.02,,---,0.16,VWS V14.01,2013-04-30 14:01:00,
2013-04-30 10:05:00,55.4,54.8,30.20,ESE,103,1.0,3.0,98,0.02,,---,0.16,VWS V14.01,2013-04-30 14:05:00,
2013-04-30 10:10:00,55.4,54.8,30.20,ESE,109,0.0,3.0,98,0.02,,---,0.16,VWS V14.01,2013-04-30 14:10:00,
2013-04-30 10:15:00,55.5,55.0,30.20,East,101,0.0,3.0,98,0.03,,---,0.17,VWS V14.01,2013-04-30 14:15:00,
2013-04-30 10:20:00,55.6,55.0,30.20,East,101,0.0,3.0,98,0.03,,---,0.17,VWS V14.01,2013-04-30 14:20:00,
2013-04-30 10:25:00,55.7,55.2,30.20,ESE,102,0.0,3.0,98,0.03,,---,0.17,VWS V14.01,2013-04-30 14:25:00,
2013-04-30 10:30:00,55.9,55.3,30.20,ENE,64,1.0,3.0,98,0.03,,---,0.17,VWS V14.01,2013-04-30 14:30:00,
2013-04-30 10:35:00,55.9,55.3,30.20,ENE,58,2.0,5.0,98,0.02,,---,0.17,VWS V14.01,2013-04-30 14:35:00,
2013-04-30 10:40:00,55.8,55.2,30.20,NE,47,1.0,5.0,98,0.02,,---,0.17,VWS V14.01,2013-04-30 14:40:00,
2013-04-30 10:45:00,55.9,55.3,30.20,ESE,102,5.0,6.0,98,0.03,,---,0.18,VWS V14.01,2013-04-30 14:45:00,
2013-04-30 10:50:00,55.8,55.2,30.20,ENE,63,0.0,6.0,98,0.03,,---,0.18,VWS V14.01,2013-04-30 14:50:00,
2013-04-30 10:55:00,56.0,55.5,30.20,ENE,72,2.0,6.0,98,0.03,,---,0.18,VWS V14.01,2013-04-30 14:55:00,
2013-04-30 11:00:00,56.0,55.5,30.20,NNW,330,0.0,6.0,98,0.03,,---,0.18,VWS V14.01,2013-04-30 15:00:00,
2013-04-30 11:05:00,56.1,55.5,30.20,SE,126,0.0,4.0,98,0.02,,---,0.18,VWS V14.01,2013-04-30 15:05:00,
2013-04-30 11:10:00,56.3,55.8,30.20,East,101,1.0,4.0,98,0.02,,---,0.18,VWS V14.01,2013-04-30 15:10:00,
2013-04-30 11:15:00,56.2,55.7,30.20,North,354,1.0,6.0,98,0.02,,---,0.18,VWS V14.01,2013-04-30 15:15:00,
2013-04-30 11:20:00,56.2,55.7,30.20,ESE,112,3.0,6.0,98,0.02,,---,0.18,VWS V14.01,2013-04-30 15:20:00,
2013-04-30 11:25:00,56.3,55.5,30.20,ENE,58,1.0,6.0,97,0.02,,---,0.18,VWS V14.01,2013-04-30 15:25:00,
2013-04-30 11:30:00,56.4,55.6,30.20,East,100,0.0,6.0,97,0.02,,---,0.18,VWS V14.01,2013-04-30 15:30:00,
2013-04-30 11:35:00,56.7,56.1,30.20,ESE,115,0.0,3.0,98,0.01,,---,0.18,VWS V14.01,2013-04-30 15:35:00,
2013-04-30 11:40:00,56.8,56.2,30.20,North,360,0.0,3.0,98,0.01,,---,0.18,VWS V14.01,2013-04-30 15:40:00,
2013-04-30 11:45:00,56.9,56.3,30.20,ESE,104,0.0,5.0,98,0.01,,---,0.18,VWS V14.01,2013-04-30 15:45:00,
2013-04-30 11:50:00,57.3,56.7,30.20,East,99,0.0,5.0,98,0.01,,---,0.18,VWS V14.01,2013-04-30 15:50:00,
2013-04-30 11:55:00,57.2,56.6,30.20,SE,127,3.0,9.0,98,0.01,,---,0.18,VWS V14.01,2013-04-30 15:55:00,
2013-04-30 12:00:00,57.2,56.6,30.20,ESE,116,1.0,9.0,98,0.01,,---,0.18,VWS V14.01,2013-04-30 16:00:00,
2013-04-30 12:05:00,57.3,56.7,30.20,SW,218,0.0,5.0,98,0.00,,---,0.18,VWS V14.01,2013-04-30 16:05:00,
2013-04-30 12:10:00,57.2,56.4,30.20,ESE,113,0.0,5.0,97,0.00,,---,0.18,VWS V14.01,2013-04-30 16:10:00,
2013-04-30 12:15:00,57.3,56.5,30.20,ENE,63,2.0,5.0,97,0.00,,---,0.18,VWS V14.01,2013-04-30 16:15:00,
2013-04-30 12:20:00,57.3,56.5,30.20,ENE,77,1.0,5.0,97,0.00,,---,0.18,VWS V14.01,2013-04-30 16:20:00,
2013-04-30 12:25:00,57.5,56.7,30.20,NW,324,2.0,5.0,97,0.00,,---,0.18,VWS V14.01,2013-04-30 16:25:00,
2013-04-30 12:30:00,57.3,56.5,30.20,ENE,61,2.0,6.0,97,0.00,,---,0.18,VWS V14.01,2013-04-30 16:30:00,
2013-04-30 12:35:00,57.2,56.4,30.20,WNW,283,1.0,4.0,97,0.00,,---,0.18,VWS V14.01,2013-04-30 16:35:00,
2013-04-30 12:40:00,57.4,56.6,30.19,ESE,115,0.0,4.0,97,0.00,,---,0.18,VWS V14.01,2013-04-30 16:40:00,
2013-04-30 12:45:00,58.1,57.3,30.19,NNE,18,1.0,4.0,97,0.00,,---,0.18,VWS V14.01,2013-04-30 16:45:00,
2013-04-30 12:50:00,58.5,57.7,30.20,ENE,75,2.0,4.0,97,0.00,,---,0.18,VWS V14.01,2013-04-30 16:50:00,
2013-04-30 12:55:00,58.3,57.2,30.20,North,349,3.0,9.0,96,0.00,,---,0.18,VWS V14.01,2013-04-30 16:55:00,
2013-04-30 13:00:00,58.1,56.7,30.20,ESE,115,4.0,9.0,95,0.00,,---,0.18,VWS V14.01,2013-04-30 17:00:00,
2013-04-30 13:05:00,58.1,56.7,30.20,North,360,1.0,5.0,95,0.00,,---,0.18,VWS V14.01,2013-04-30 17:05:00,
2013-04-30 13:10:00,58.2,56.8,30.20,NNW,339,1.0,5.0,95,0.00,,---,0.18,VWS V14.01,2013-04-30 17:10:00,
2013-04-30 13:15:00,58.0,56.3,30.20,East,84,1.0,5.0,94,0.00,,---,0.18,VWS V14.01,2013-04-30 17:15:00,
2013-04-30 13:20:00,57.8,56.4,30.20,NNE,30,1.0,9.0,95,0.00,,---,0.18,VWS V14.01,2013-04-30 17:20:00,
2013-04-30 13:25:00,57.8,56.4,30.20,East,101,1.0,9.0,95,0.00,,---,0.18,VWS V14.01,2013-04-30 17:25:00,
2013-04-30 13:30:00,58.0,56.6,30.20,NNE,13,1.0,9.0,95,0.00,,---,0.18,VWS V14.01,2013-04-30 17:30:00,
2013-04-30 13:35:00,58.0,56.9,30.20,East,79,0.0,5.0,96,0.00,,---,0.18,VWS V14.01,2013-04-30 17:35:00,
2013-04-30 13:40:00,57.9,56.8,30.20,NNE,27,1.0,5.0,96,0.00,,---,0.18,VWS V14.01,2013-04-30 17:40:00,
2013-04-30 13:45:00,58.0,56.9,30.20,ENE,68,1.0,5.0,96,0.00,,---,0.18,VWS V14.01,2013-04-30 17:45:00,
2013-04-30 13:50:00,58.0,56.9,30.20,NW,316,1.0,5.0,96,0.00,,---,0.18,VWS V14.01,2013-04-30 17:50:00,
2013-04-30 13:55:00,58.0,56.9,30.20,East,85,1.0,5.0,96,0.00,,---,0.18,VWS V14.01,2013-04-30 17:55:00,
2013-04-30 14:00:00,57.9,56.8,30.20,East,93,4.0,5.0,96,0.00,,---,0.18,VWS V14.01,2013-04-30 18:00:00,
2013-04-30 14:05:00,58.0,56.9,30.20,NE,46,1.0,3.0,96,0.00,,---,0.18,VWS V14.01,2013-04-30 18:05:00,
2013-04-30 14:10:00,58.1,57.0,30.20,NE,52,2.0,5.0,96,0.00,,---,0.18,VWS V14.01,2013-04-30 18:10:00,
2013-04-30 14:15:00,58.0,56.9,30.20,ENE,62,0.0,5.0,96,0.00,,---,0.18,VWS V14.01,2013-04-30 18:15:00,
2013-04-30 14:20:00,58.0,56.9,30.21,ESE,120,3.0,5.0,96,0.00,,---,0.18,VWS V14.01,2013-04-30 18:20:00,
2013-04-30 14:25:00,58.1,57.0,30.21,NNE,32,4.0,7.0,96,0.00,,---,0.18,VWS V14.01,2013-04-30 18:25:00,
2013-04-30 14:30:00,58.0,56.9,30.21,ESE,110,3.0,7.0,96,0.00,,---,0.18,VWS V14.01,2013-04-30 18:30:00,
2013-04-30 14:35:00,58.1,57.0,30.21,NE,50,0.0,5.0,96,0.01,,---,0.19,VWS V14.01,2013-04-30 18:35:00,
2013-04-30 14:40:00,58.2,57.1,30.21,NE,40,1.0,5.0,96,0.01,,---,0.19,VWS V14.01,2013-04-30 18:40:00,
2013-04-30 14:45:00,58.1,57.0,30.21,East,84,1.0,5.0,96,0.01,,---,0.19,VWS V14.01,2013-04-30 18:45:00,
2013-04-30 14:50:00,58.2,57.1,30.21,East,101,1.0,5.0,96,0.01,,---,0.19,VWS V14.01,2013-04-30 18:50:00,
2013-04-30 14:55:00,58.5,57.4,30.21,NW,325,0.0,5.0,96,0.01,,---,0.19,VWS V14.01,2013-04-30 18:55:00,
2013-04-30 15:00:00,58.3,57.2,30.21,ESE,119,3.0,5.0,96,0.01,,---,0.19,VWS V14.01,2013-04-30 19:00:00,
2013-04-30 15:05:00,58.4,57.3,30.21,East,101,2.0,4.0,96,0.01,,---,0.19,VWS V14.01,2013-04-30 19:05:00,
2013-04-30 15:10:00,58.3,57.2,30.21,South,190,2.0,4.0,96,0.01,,---,0.19,VWS V14.01,2013-04-30 19:10:00,
2013-04-30 15:15:00,58.4,57.3,30.21,ESE,107,0.0,5.0,96,0.02,,---,0.20,VWS V14.01,2013-04-30 19:15:00,
2013-04-30 15:20:00,58.7,57.6,30.21,East,82,0.0,5.0,96,0.02,,---,0.20,VWS V14.01,2013-04-30 19:20:00,
2013-04-30 15:25:00,58.9,57.8,30.21,ESE,110,1.0,5.0,96,0.02,,---,0.20,VWS V14.01,2013-04-30 19:25:00,
2013-04-30 15:30:00,58.7,57.6,30.21,ENE,63,0.0,5.0,96,0.02,,---,0.20,VWS V14.01,2013-04-30 19:30:00,
2013-04-30 15:35:00,58.5,57.1,30.21,ESE,120,1.0,3.0,95,0.01,,---,0.20,VWS V14.01,2013-04-30 19:35:00,
2013-04-30 15:40:00,58.8,57.7,30.21,ESE,109,1.0,3.0,96,0.01,,---,0.20,VWS V14.01,2013-04-30 19:40:00,
2013-04-30 15:45:00,58.8,57.7,30.21,ENE,66,0.0,5.0,96,0.01,,---,0.20,VWS V14.01,2013-04-30 19:45:00,
2013-04-30 15:50:00,58.9,57.2,30.21,SE,139,2.0,5.0,94,0.01,,---,0.20,VWS V14.01,2013-04-30 19:50:00,
2013-04-30 15:55:00,59.1,57.4,30.21,NW,322,1.0,5.0,94,0.01,,---,0.20,VWS V14.01,2013-04-30 19:55:00,
2013-04-30 16:00:00,59.1,57.1,30.21,SE,146,0.0,5.0,93,0.01,,---,0.20,VWS V14.01,2013-04-30 20:00:00,
2013-04-30 16:05:00,59.3,57.3,30.22,SE,127,0.0,4.0,93,0.01,,---,0.20,VWS V14.01,2013-04-30 20:05:00,
2013-04-30 16:10:00,59.4,57.4,30.22,SE,129,1.0,4.0,93,0.01,,---,0.20,VWS V14.01,2013-04-30 20:10:00,
2013-04-30 16:15:00,59.2,56.9,30.22,ESE,103,0.0,4.0,92,0.01,,---,0.20,VWS V14.01,2013-04-30 20:15:00,
2013-04-30 16:20:00,59.2,57.2,30.22,East,101,1.0,4.0,93,0.01,,---,0.20,VWS V14.01,2013-04-30 20:20:00,
2013-04-30 16:25:00,59.1,57.1,30.22,ENE,69,0.0,4.0,93,0.01,,---,0.20,VWS V14.01,2013-04-30 20:25:00,
2013-04-30 16:30:00,59.1,56.8,30.22,NE,56,2.0,4.0,92,0.01,,---,0.20,VWS V14.01,2013-04-30 20:30:00,
2013-04-30 16:35:00,59.1,57.1,30.23,SSE,160,3.0,3.0,93,0.00,,---,0.20,VWS V14.01,2013-04-30 20:35:00,
2013-04-30 16:40:00,58.9,56.3,30.22,ESE,109,0.0,6.0,91,0.00,,---,0.20,VWS V14.01,2013-04-30 20:40:00,
2013-04-30 16:45:00,58.8,56.2,30.23,North,2,0.0,6.0,91,0.00,,---,0.20,VWS V14.01,2013-04-30 20:45:00,
2013-04-30 16:50:00,58.9,56.3,30.23,ESE,103,2.0,6.0,91,0.00,,---,0.20,VWS V14.01,2013-04-30 20:50:00,
2013-04-30 16:55:00,58.8,56.2,30.23,ESE,118,3.0,6.0,91,0.00,,---,0.20,VWS V14.01,2013-04-30 20:55:00,
2013-04-30 17:00:00,58.6,56.0,30.23,NE,37,1.0,7.0,91,0.00,,---,0.20,VWS V14.01,2013-04-30 21:00:00,
2013-04-30 17:05:00,58.1,55.2,30.23,East,98,3.0,4.0,90,0.00,,---,0.20,VWS V14.01,2013-04-30 21:05:00,
2013-04-30 17:10:00,58.0,55.7,30.23,ESE,117,1.0,4.0,92,0.00,,---,0.20,VWS V14.01,2013-04-30 21:10:00,
2013-04-30 17:15:00,58.0,55.7,30.23,East,101,0.0,4.0,92,0.00,,---,0.20,VWS V14.01,2013-04-30 21:15:00,
2013-04-30 17:20:00,58.0,55.7,30.23,ENE,68,1.0,4.0,92,0.00,,---,0.20,VWS V14.01,2013-04-30 21:20:00,
2013-04-30 17:25:00,58.1,55.8,30.23,East,98,1.0,4.0,92,0.00,,---,0.20,VWS V14.01,2013-04-30 21:25:00,
2013-04-30 17:30:00,58.3,55.7,30.23,ESE,110,5.0,5.0,91,0.00,,---,0.20,VWS V14.01,2013-04-30 21:30:00,
2013-04-30 17:35:00,58.5,55.9,30.23,East,89,1.0,3.0,91,0.00,,---,0.20,VWS V14.01,2013-04-30 21:35:00,
2013-04-30 17:40:00,58.6,56.0,30.23,East,84,0.0,3.0,91,0.00,,---,0.20,VWS V14.01,2013-04-30 21:40:00,
2013-04-30 17:45:00,58.6,56.0,30.23,ENE,74,0.0,3.0,91,0.00,,---,0.20,VWS V14.01,2013-04-30 21:45:00,
2013-04-30 17:50:00,58.6,55.7,30.23,ESE,108,3.0,5.0,90,0.00,,---,0.20,VWS V14.01,2013-04-30 21:50:00,
2013-04-30 17:55:00,58.6,55.7,30.23,ESE,118,3.0,5.0,90,0.00,,---,0.20,VWS V14.01,2013-04-30 21:55:00,
2013-04-30 18:00:00,58.5,55.6,30.23,ENE,57,0.0,5.0,90,0.00,,---,0.20,VWS V14.01,2013-04-30 22:00:00,
2013-04-30 18:05:00,58.6,56.0,30.23,ENE,70,1.0,2.0,91,0.00,,---,0.20,VWS V14.01,2013-04-30 22:05:00,
2013-04-30 18:10:00,58.4,55.5,30.23,ENE,68,0.0,2.0,90,0.00,,---,0.20,VWS V14.01,2013-04-30 22:10:00,
2013-04-30 18:15:00,58.4,55.5,30.23,ESE,104,0.0,5.0,90,0.00,,---,0.20,VWS V14.01,2013-04-30 22:15:00,
2013-04-30 18:20:00,58.4,55.5,30.24,ESE,103,0.0,5.0,90,0.00,,---,0.20,VWS V14.01,2013-04-30 22:20:00,
2013-04-30 18:25:00,58.4,55.2,30.24,SE,132,0.0,5.0,89,0.00,,---,0.20,VWS V14.01,2013-04-30 22:25:00,
2013-04-30 18:30:00,58.4,55.5,30.24,ESE,120,1.0,5.0,90,0.00,,---,0.20,VWS V14.01,2013-04-30 22:30:00,
2013-04-30 18:35:00,58.3,55.4,30.24,ESE,120,0.0,1.0,90,0.00,,---,0.20,VWS V14.01,2013-04-30 22:35:00,
2013-04-30 18:40:00,58.3,55.4,30.24,ESE,120,0.0,1.0,90,0.00,,---,0.20,VWS V14.01,2013-04-30 22:40:00,
2013-04-30 18:45:00,58.3,55.7,30.24,ESE,120,0.0,1.0,91,0.00,,---,0.20,VWS V14.01,2013-04-30 22:45:00,
2013-04-30 18:50:00,58.4,55.8,30.24,ESE,120,0.0,1.0,91,0.00,,---,0.20,VWS V14.01,2013-04-30 22:50:00,
2013-04-30 18:55:00,58.3,55.4,30.24,SE,125,0.0,3.0,90,0.00,,---,0.20,VWS V14.01,2013-04-30 22:55:00,
2013-04-30 19:00:00,58.2,55.3,30.24,SE,125,0.0,3.0,90,0.00,,---,0.20,VWS V14.01,2013-04-30 23:00:00,
2013-04-30 19:05:00,58.2,55.6,30.24,SE,125,0.0,0.0,91,0.00,,---,0.20,VWS V14.01,2013-04-30 23:05:00,
2013-04-30 19:10:00,58.1,55.5,30.24,SE,125,0.0,1.0,91,0.00,,---,0.20,VWS V14.01,2013-04-30 23:10:00,
2013-04-30 19:15:00,58.0,55.4,30.24,SE,125,0.0,1.0,91,0.00,,---,0.20,VWS V14.01,2013-04-30 23:15:00,
2013-04-30 19:20:00,58.0,55.4,30.24,SE,125,0.0,1.0,91,0.00,,---,0.20,VWS V14.01,2013-04-30 23:20:00,
2013-04-30 19:25:00,58.1,55.8,30.24,SE,125,0.0,2.0,92,0.00,,---,0.20,VWS V14.01,2013-04-30 23:25:00,
2013-04-30 19:30:00,57.9,55.6,30.24,SE,125,0.0,2.0,92,0.00,,---,0.20,VWS V14.01,2013-04-30 23:30:00,
2013-04-30 19:35:00,57.9,55.9,30.24,SE,125,0.0,0.0,93,0.00,,---,0.20,VWS V14.01,2013-04-30 23:35:00,
2013-04-30 19:40:00,57.7,55.7,30.25,SE,125,0.0,0.0,93,0.00,,---,0.20,VWS V14.01,2013-04-30 23:40:00,
2013-04-30 19:45:00,57.6,55.6,30.25,SE,125,0.0,0.0,93,0.00,,---,0.20,VWS V14.01,2013-04-30 23:45:00,
2013-04-30 19:50:00,57.5,55.5,30.24,SE,125,0.0,0.0,93,0.00,,---,0.20,VWS V14.01,2013-04-30 23:50:00,
2013-04-30 19:55:00,57.3,55.3,30.25,SE,125,0.0,0.0,93,0.00,,---,0.20,VWS V14.01,2013-04-30 23:55:00,
2013-04-30 20:00:00,57.1,55.4,30.25,SE,125,0.0,0.0,94,0.00,,---,0.20,VWS V14.01,2013-05-01 00:00:00,
2013-04-30 20:05:00,56.9,55.2,30.25,SE,125,0.0,0.0,94,0.00,,---,0.20,VWS V14.01,2013-05-01 00:05:00,
2013-04-30 20:10:00,56.7,54.7,30.25,SE,145,0.0,1.0,93,0.00,,---,0.20,VWS V14.01,2013-05-01 00:10:00,
2013-04-30 20:15:00,56.9,54.3,30.25,East,101,0.0,3.0,91,0.00,,---,0.20,VWS V14.01,2013-05-01 00:15:00,
2013-04-30 20:20:00,57.1,53.3,30.24,SE,125,0.0,3.0,87,0.00,,---,0.20,VWS V14.01,2013-05-01 00:20:00,
2013-04-30 20:25:00,57.4,52.9,30.24,SE,124,0.0,3.0,85,0.00,,---,0.20,VWS V14.01,2013-05-01 00:25:00,
2013-04-30 20:30:00,57.3,52.5,30.24,ESE,106,0.0,3.0,84,0.00,,---,0.20,VWS V14.01,2013-05-01 00:30:00,
2013-04-30 20:35:00,57.1,52.6,30.24,East,96,0.0,2.0,85,0.00,,---,0.20,VWS V14.01,2013-05-01 00:35:00,
2013-04-30 20:40:00,56.7,52.9,30.25,East,101,0.0,2.0,87,0.00,,---,0.20,VWS V14.01,2013-05-01 00:40:00,
2013-04-30 20:45:00,56.4,52.6,30.25,East,101,0.0,2.0,87,0.00,,---,0.20,VWS V14.01,2013-05-01 00:45:00,
2013-04-30 20:50:00,56.1,52.3,30.25,East,101,0.0,2.0,87,0.00,,---,0.20,VWS V14.01,2013-05-01 00:50:00,
2013-04-30 20:55:00,55.8,52.3,30.25,East,101,0.0,2.0,88,0.00,,---,0.20,VWS V14.01,2013-05-01 00:55:00,
2013-04-30 21:00:00,55.2,52.0,30.26,East,101,0.0,2.0,89,0.00,,---,0.20,VWS V14.01,2013-05-01 01:00:00,
2013-04-30 21:05:00,54.9,52.0,30.26,East,101,0.0,0.0,90,0.00,,---,0.20,VWS V14.01,2013-05-01 01:05:00,
2013-04-30 21:10:00,54.7,52.1,30.26,East,101,0.0,0.0,91,0.00,,---,0.20,VWS V14.01,2013-05-01 01:10:00,
2013-04-30 21:15:00,54.4,52.1,30.26,East,101,0.0,0.0,92,0.00,,---,0.20,VWS V14.01,2013-05-01 01:15:00,
2013-04-30 21:20:00,54.1,52.4,30.26,East,101,0.0,0.0,94,0.00,,---,0.20,VWS V14.01,2013-05-01 01:20:00,
2013-04-30 21:25:00,53.8,52.1,30.26,East,101,0.0,0.0,94,0.00,,---,0.20,VWS V14.01,2013-05-01 01:25:00,
2013-04-30 21:30:00,53.5,52.1,30.27,East,101,0.0,0.0,95,0.00,,---,0.20,VWS V14.01,2013-05-01 01:30:00,
2013-04-30 21:35:00,53.1,51.7,30.27,East,101,0.0,0.0,95,0.00,,---,0.20,VWS V14.01,2013-05-01 01:35:00,
2013-04-30 21:40:00,52.8,51.4,30.27,East,101,0.0,0.0,95,0.00,,---,0.20,VWS V14.01,2013-05-01 01:40:00,
2013-04-30 21:45:00,52.7,51.6,30.27,East,101,0.0,0.0,96,0.00,,---,0.20,VWS V14.01,2013-05-01 01:45:00,
2013-04-30 21:50:00,52.4,51.3,30.27,East,101,0.0,0.0,96,0.00,,---,0.20,VWS V14.01,2013-05-01 01:50:00,
2013-04-30 21:55:00,52.1,51.0,30.27,East,101,0.0,0.0,96,0.00,,---,0.20,VWS V14.01,2013-05-01 01:55:00,
2013-04-30 22:00:00,51.8,50.7,30.27,East,101,0.0,0.0,96,0.00,,---,0.20,VWS V14.01,2013-05-01 02:00:00,
2013-04-30 22:05:00,51.7,50.6,30.27,East,101,0.0,0.0,96,0.00,,---,0.20,VWS V14.01,2013-05-01 02:05:00,
2013-04-30 22:09:00,51.7,50.6,30.27,East,101,0.0,0.0,96,0.00,,---,0.20,VWS V14.01,2013-05-01 02:09:00,
2013-04-30 22:14:00,51.6,50.5,30.27,East,101,0.0,0.0,96,0.00,,---,0.20,VWS V14.01,2013-05-01 02:14:00,
2013-04-30 22:19:00,51.7,50.6,30.27,East,101,0.0,0.0,96,0.00,,---,0.20,VWS V14.01,2013-05-01 02:19:00,
2013-04-30 22:24:00,51.6,50.5,30.27,East,101,0.0,0.0,96,0.00,,---,0.20,VWS V14.01,2013-05-01 02:24:00,
2013-04-30 22:29:00,51.4,50.3,30.27,East,101,0.0,0.0,96,0.00,,---,0.20,VWS V14.01,2013-05-01 02:29:00,
2013-04-30 22:30:00,51.4,50.3,30.27,East,101,0.0,0.0,96,0.00,,---,0.20,VWS V14.01,2013-05-01 02:30:00,
2013-04-30 22:34:00,51.3,50.2,30.27,East,101,0.0,0.0,96,0.00,,---,0.20,VWS V14.01,2013-05-01 02:34:00,
2013-04-30 22:39:00,51.2,50.1,30.27,East,101,0.0,0.0,96,0.00,,---,0.20,VWS V14.01,2013-05-01 02:39:00,
2013-04-30 22:44:00,51.0,49.9,30.27,East,101,0.0,0.0,96,0.00,,---,0.20,VWS V14.01,2013-05-01 02:44:00,
2013-04-30 22:49:00,51.0,49.9,30.28,East,101,0.0,0.0,96,0.00,,---,0.20,VWS V14.01,2013-05-01 02:49:00,
2013-04-30 22:54:00,50.9,49.8,30.28,East,101,0.0,0.0,96,0.00,,---,0.20,VWS V14.01,2013-05-01 02:54:00,
2013-04-30 22:59:00,50.7,49.6,30.28,East,101,0.0,0.0,96,0.00,,---,0.20,VWS V14.01,2013-05-01 02:59:00,
2013-04-30 23:00:00,50.7,49.6,30.28,East,101,0.0,0.0,96,0.00,,---,0.20,VWS V14.01,2013-05-01 03:00:00,
2013-04-30 23:04:00,50.5,49.7,30.28,East,101,0.0,0.0,97,0.00,,---,0.20,VWS V14.01,2013-05-01 03:04:00,
2013-04-30 23:09:00,50.5,49.7,30.28,East,101,0.0,0.0,97,0.00,,---,0.20,VWS V14.01,2013-05-01 03:09:00,
2013-04-30 23:14:00,50.3,49.5,30.28,East,101,0.0,0.0,97,0.00,,---,0.20,VWS V14.01,2013-05-01 03:14:00,
2013-04-30 23:19:00,50.1,49.3,30.27,East,101,0.0,0.0,97,0.00,,---,0.20,VWS V14.01,2013-05-01 03:19:00,
2013-04-30 23:25:00,49.9,49.1,30.27,East,101,0.0,0.0,97,0.00,,---,0.20,VWS V14.01,2013-05-01 03:25:00,
2013-04-30 23:30:00,49.7,48.9,30.28,East,101,0.0,0.0,97,0.00,,---,0.20,VWS V14.01,2013-05-01 03:30:00,
2013-04-30 23:35:00,49.6,48.8,30.28,East,101,0.0,0.0,97,0.00,,---,0.20,VWS V14.01,2013-05-01 03:35:00,
2013-04-30 23:40:00,49.6,48.8,30.28,East,101,0.0,0.0,97,0.00,,---,0.20,VWS V14.01,2013-05-01 03:40:00,
2013-04-30 23:45:00,49.6,48.8,30.28,East,101,0.0,0.0,97,0.00,,---,0.20,VWS V14.01,2013-05-01 03:45:00,
2013-04-30 23:50:00,49.3,48.5,30.28,East,101,0.0,0.0,97,0.00,,---,0.20,VWS V14.01,2013-05-01 03:50:00,
2013-04-30 23:55:00,49.2,48.4,30.28,East,101,0.0,0.0,97,0.00,,---,0.20,VWS V14.01,2013-05-01 03:55:00,